Cos Cob, Connecticut
Current Conditions -  °F | °C
As of 3:56 AM on Sunday 21 Dec 2014 (Local Time) from KHPN Reporting Station
Broken Clouds Broken Clouds  
Wind Chill: 23°   Ceiling: 2800
Heat Index: 29°   Visibility: 10mi
Dew Point: 24°   Wind: 6mph
Humidity: 82%   Direction: 320°NW
Pressure: 30.25"   Gusts: NA
Location:  41.03°N, 73.6°W
Report Text: KHPN 210856Z 32005KT 10SM SCT022 BKN028 M02/M04 A3025 RMK AO2 SLP253 T10171044 53001
Loading
Personal Weather Stations






























Interactive Weather Map New forecast layout! Learn more

10-Day Weather Forecast

Advertisements
Track Severe Weather on mobile